createdAt,value
2018-08-20T00:00:47.302Z,20.40
2018-08-20T00:03:51.495Z,20.39
2018-08-20T00:06:57.568Z,20.39
2018-08-20T00:10:01.458Z,20.38
2018-08-20T00:13:05.342Z,20.39
2018-08-20T00:16:09.809Z,20.38
2018-08-20T00:19:14.161Z,20.37
2018-08-20T00:22:18.385Z,20.37
2018-08-20T00:25:22.270Z,20.36
2018-08-20T00:28:26.611Z,20.35
2018-08-20T00:31:30.495Z,20.34
2018-08-20T00:34:34.745Z,20.33
2018-08-20T00:37:38.970Z,20.33
2018-08-20T00:40:43.185Z,20.31
2018-08-20T00:43:47.651Z,20.31
2018-08-20T00:46:51.527Z,20.31
2018-08-20T00:49:55.409Z,20.31
2018-08-20T00:52:59.293Z,20.29
2018-08-20T00:56:03.181Z,20.28
2018-08-20T00:59:07.072Z,20.28
2018-08-20T01:02:10.952Z,20.27
2018-08-20T01:05:15.022Z,20.26
2018-08-20T01:08:18.915Z,20.24
2018-08-20T01:11:23.135Z,20.23
2018-08-20T01:14:27.244Z,20.23
2018-08-20T01:17:31.127Z,20.22
2018-08-20T01:20:35.667Z,20.20
2018-08-20T01:23:39.569Z,20.20
2018-08-20T01:26:43.452Z,20.17
2018-08-20T01:29:47.664Z,20.17
2018-08-20T01:32:55.725Z,20.16
2018-08-20T01:35:59.846Z,20.15
2018-08-20T01:39:05.425Z,20.14
2018-08-20T01:42:09.314Z,20.12
2018-08-20T01:45:13.741Z,20.11
2018-08-20T01:48:17.952Z,20.11
2018-08-20T01:51:21.844Z,20.10
2018-08-20T01:54:25.713Z,20.10
2018-08-20T01:57:29.796Z,20.08
2018-08-20T02:00:33.693Z,20.07
2018-08-20T02:03:37.584Z,20.07
2018-08-20T02:06:41.798Z,20.06
2018-08-20T02:09:45.909Z,20.06
2018-08-20T02:12:49.799Z,20.05
2018-08-20T02:15:54.017Z,20.03
2018-08-20T02:18:57.887Z,20.01
2018-08-20T02:22:02.109Z,20.02
2018-08-20T02:25:06.066Z,20.01
2018-08-20T02:28:10.273Z,20.00
2018-08-20T02:31:14.173Z,19.98
2018-08-20T02:34:18.258Z,19.97
2018-08-20T02:37:22.141Z,19.96
2018-08-20T02:40:26.233Z,19.95
2018-08-20T02:43:30.309Z,19.94
2018-08-20T02:46:44.673Z,19.93
2018-08-20T02:49:48.545Z,19.92
2018-08-20T02:52:52.453Z,19.91
2018-08-20T02:55:56.681Z,19.90
2018-08-20T02:59:00.569Z,19.89
2018-08-20T03:02:04.494Z,19.88
2018-08-20T03:05:09.969Z,19.87
2018-08-20T03:08:13.849Z,19.88
2018-08-20T03:11:17.734Z,19.87
2018-08-20T03:14:21.616Z,19.87
2018-08-20T03:17:25.556Z,19.86
2018-08-20T03:20:29.837Z,19.87
2018-08-20T03:23:33.732Z,19.86
2018-08-20T03:26:37.619Z,19.85
2018-08-20T03:29:41.497Z,19.84
2018-08-20T03:32:45.417Z,19.85
2018-08-20T03:35:49.713Z,19.85
2018-08-20T03:38:53.580Z,19.83
2018-08-20T03:41:57.485Z,19.83
2018-08-20T03:45:01.705Z,19.82
2018-08-20T03:48:05.883Z,19.83
2018-08-20T03:51:10.358Z,19.82
2018-08-20T03:54:14.421Z,19.83
2018-08-20T03:57:18.533Z,19.81
2018-08-20T04:00:24.820Z,19.83
2018-08-20T04:03:28.692Z,19.81
2018-08-20T04:06:32.581Z,19.82
2018-08-20T04:09:36.489Z,19.82
2018-08-20T04:12:40.369Z,19.81
2018-08-20T04:15:44.245Z,19.82
2018-08-20T04:18:48.469Z,19.81
2018-08-20T04:21:52.685Z,19.80
2018-08-20T04:24:56.579Z,19.81
2018-08-20T04:28:00.706Z,19.80
2018-08-20T04:31:04.794Z,19.81
2018-08-20T04:34:08.690Z,19.78
2018-08-20T04:37:12.564Z,19.79
2018-08-20T04:40:16.444Z,19.78
2018-08-20T04:43:20.314Z,19.78
2018-08-20T04:46:24.542Z,19.78
2018-08-20T04:49:28.752Z,19.77
2018-08-20T04:52:32.638Z,19.77
2018-08-20T04:55:36.537Z,19.77
2018-08-20T04:58:40.778Z,19.77
2018-08-20T05:01:44.852Z,19.78
2018-08-20T05:04:48.736Z,19.78
2018-08-20T05:07:52.622Z,19.78
2018-08-20T05:10:56.820Z,19.79
2018-08-20T05:14:01.016Z,19.77
2018-08-20T05:17:05.317Z,19.78
2018-08-20T05:20:10.109Z,19.78
2018-08-20T05:23:14.577Z,19.79
2018-08-20T05:26:19.068Z,19.79
2018-08-20T05:29:23.233Z,19.80
2018-08-20T05:32:27.313Z,19.80
2018-08-20T05:35:31.212Z,19.81
2018-08-20T05:38:35.425Z,19.82
2018-08-20T05:41:39.320Z,19.82
2018-08-20T05:44:43.512Z,19.82
2018-08-20T05:47:47.532Z,19.80
2018-08-20T05:50:51.420Z,19.79
2018-08-20T05:53:55.298Z,19.79
2018-08-20T05:56:59.179Z,19.78
2018-08-20T06:00:03.590Z,19.76
2018-08-20T06:03:07.496Z,19.76
2018-08-20T06:06:11.366Z,19.70
2018-08-20T06:09:15.789Z,19.69
2018-08-20T06:12:20.009Z,19.66
2018-08-20T06:15:24.326Z,19.63
2018-08-20T06:18:28.297Z,19.62
2018-08-20T06:21:32.856Z,19.60
2018-08-20T06:24:36.736Z,19.60
2018-08-20T06:27:41.397Z,19.56
2018-08-20T06:30:45.341Z,19.56
2018-08-20T06:33:49.227Z,19.56
2018-08-20T06:36:53.110Z,19.55
2018-08-20T06:39:56.979Z,19.57
2018-08-20T06:43:00.869Z,19.57
2018-08-20T06:46:04.994Z,19.57
2018-08-20T06:49:09.616Z,19.58
2018-08-20T06:52:13.856Z,19.59
2018-08-20T06:55:17.980Z,19.60
2018-08-20T06:58:22.205Z,19.62
2018-08-20T07:01:26.072Z,19.63
2018-08-20T07:04:30.285Z,19.66
2018-08-20T07:07:34.685Z,19.70
2018-08-20T07:10:44.053Z,19.74
2018-08-20T07:13:48.298Z,19.78
2018-08-20T07:16:52.421Z,19.80
2018-08-20T07:19:56.533Z,19.82
2018-08-20T07:23:00.672Z,19.84
2018-08-20T07:26:04.745Z,19.86
2018-08-20T07:29:08.967Z,19.88
2018-08-20T07:32:15.090Z,19.89
2018-08-20T07:35:19.311Z,19.92
2018-08-20T07:38:23.762Z,19.96
2018-08-20T07:41:27.633Z,19.98
2018-08-20T07:44:31.593Z,20.02
2018-08-20T07:47:35.998Z,20.05
2018-08-20T07:50:40.222Z,20.09
2018-08-20T07:53:44.118Z,20.11
2018-08-20T07:56:48.558Z,20.15
2018-08-20T07:59:52.764Z,20.18
2018-08-20T08:02:57.000Z,20.20
2018-08-20T08:06:02.789Z,20.21
2018-08-20T08:09:07.925Z,20.23
2018-08-20T08:12:11.819Z,20.26
2018-08-20T08:15:16.357Z,20.28
2018-08-20T08:18:20.442Z,20.30
2018-08-20T08:21:24.568Z,20.33
2018-08-20T08:24:28.733Z,20.33
2018-08-20T08:27:32.764Z,20.36
2018-08-20T08:30:36.837Z,20.37
2018-08-20T08:33:40.938Z,20.36
2018-08-20T08:36:45.145Z,20.36
2018-08-20T08:39:49.361Z,20.37
2018-08-20T08:42:53.260Z,20.38
2018-08-20T08:45:57.143Z,20.39
2018-08-20T08:49:01.029Z,20.41
2018-08-20T08:52:05.004Z,20.43
2018-08-20T08:55:09.831Z,20.45
2018-08-20T08:58:13.877Z,20.49
2018-08-20T09:01:17.756Z,20.51
2018-08-20T09:04:21.644Z,20.54
2018-08-20T09:07:26.088Z,20.59
2018-08-20T09:10:30.320Z,20.64
2018-08-20T09:13:34.579Z,20.69
2018-08-20T09:16:38.707Z,20.74
2018-08-20T09:19:43.145Z,20.77
2018-08-20T09:22:47.024Z,20.80
2018-08-20T09:25:50.911Z,20.81
2018-08-20T09:28:54.801Z,20.81
2018-08-20T09:31:59.045Z,20.81
2018-08-20T09:35:03.280Z,20.80
2018-08-20T09:38:07.355Z,20.81
2018-08-20T09:41:11.447Z,20.81
2018-08-20T09:44:15.531Z,20.81
2018-08-20T09:47:19.759Z,20.82
2018-08-20T09:50:23.640Z,20.82
2018-08-20T09:53:27.956Z,20.82
2018-08-20T09:56:32.301Z,20.84
2018-08-20T09:59:36.172Z,20.82
2018-08-20T10:02:40.261Z,20.83
2018-08-20T10:05:44.483Z,20.83
2018-08-20T10:08:48.373Z,20.83
2018-08-20T10:11:52.255Z,20.91
2018-08-20T10:14:56.138Z,21.08
2018-08-20T10:18:00.030Z,21.15
2018-08-20T10:21:04.244Z,21.20
2018-08-20T10:24:08.130Z,21.21
2018-08-20T10:27:12.075Z,21.22
2018-08-20T10:30:16.004Z,21.24
2018-08-20T10:33:20.416Z,21.25
2018-08-20T10:36:24.498Z,21.26
2018-08-20T10:39:28.384Z,21.27
2018-08-20T10:42:32.614Z,21.27
2018-08-20T10:45:42.110Z,21.27
2018-08-20T10:48:46.005Z,21.25
2018-08-20T10:51:49.922Z,21.23
2018-08-20T10:54:54.041Z,21.22
2018-08-20T10:57:57.940Z,21.25
2018-08-20T11:01:01.838Z,21.26
2018-08-20T11:04:06.104Z,21.29
2018-08-20T11:07:10.174Z,21.31
2018-08-20T11:10:14.177Z,21.35
2018-08-20T11:13:18.792Z,21.39
2018-08-20T11:16:23.021Z,21.42
2018-08-20T11:19:26.917Z,21.43
2018-08-20T11:22:30.801Z,21.43
2018-08-20T11:25:34.689Z,21.42
2018-08-20T11:28:38.922Z,21.42
2018-08-20T11:31:42.806Z,21.41
2018-08-20T11:34:46.905Z,21.40
2018-08-20T11:37:50.790Z,21.44
2018-08-20T11:40:55.005Z,21.43
2018-08-20T11:43:59.248Z,21.41
2018-08-20T11:47:03.673Z,21.42
2018-08-20T11:50:07.915Z,21.43
2018-08-20T11:53:12.137Z,21.44
2018-08-20T11:56:16.029Z,21.44
2018-08-20T11:59:20.130Z,21.47
2018-08-20T12:02:24.023Z,21.49
2018-08-20T12:05:27.885Z,21.52
2018-08-20T12:08:31.765Z,21.53
2018-08-20T12:11:35.642Z,21.55
2018-08-20T12:14:39.525Z,21.58
2018-08-20T12:17:43.533Z,21.61
2018-08-20T12:20:47.743Z,21.66
2018-08-20T12:23:51.617Z,21.72
2018-08-20T12:26:55.709Z,21.78
2018-08-20T12:29:59.605Z,21.83
2018-08-20T12:33:03.497Z,21.89
2018-08-20T12:36:07.375Z,21.93
2018-08-20T12:39:11.259Z,21.97
2018-08-20T12:42:15.154Z,22.01
2018-08-20T12:45:19.029Z,22.04
2018-08-20T12:48:22.922Z,22.07
2018-08-20T12:51:27.183Z,22.10
2018-08-20T12:54:31.058Z,22.13
2018-08-20T12:57:35.219Z,22.13
2018-08-20T13:00:39.132Z,22.15
2018-08-20T13:03:43.188Z,22.18
2018-08-20T13:06:47.074Z,22.18
2018-08-20T13:09:51.293Z,22.19
2018-08-20T13:12:55.200Z,22.17
2018-08-20T13:15:59.559Z,22.19
2018-08-20T13:19:03.600Z,22.16
2018-08-20T13:22:08.255Z,22.16
2018-08-20T13:25:12.133Z,22.19
2018-08-20T13:28:16.360Z,22.16
2018-08-20T13:31:20.248Z,22.15
2018-08-20T13:34:24.387Z,22.15
2018-08-20T13:37:28.269Z,22.15
2018-08-20T13:40:32.402Z,22.14
2018-08-20T13:43:36.544Z,22.18
2018-08-20T13:46:40.765Z,22.20
2018-08-20T13:49:44.843Z,22.22
2018-08-20T13:52:48.720Z,22.23
2018-08-20T13:55:52.609Z,22.24
2018-08-20T13:58:56.511Z,22.22
2018-08-20T14:02:00.422Z,22.20
2018-08-20T14:05:04.470Z,22.19
2018-08-20T14:08:08.688Z,22.19
2018-08-20T14:11:12.569Z,22.15
2018-08-20T14:14:16.668Z,22.14
2018-08-20T14:17:20.549Z,22.11
2018-08-20T14:20:24.685Z,22.11
2018-08-20T14:23:28.576Z,22.10
2018-08-20T14:26:32.636Z,22.08
2018-08-20T14:29:38.591Z,22.06
2018-08-20T14:32:43.072Z,22.07
2018-08-20T14:35:47.153Z,22.08
2018-08-20T14:38:51.291Z,22.06
2018-08-20T14:41:55.704Z,22.06
2018-08-20T14:44:59.788Z,22.05
2018-08-20T14:48:03.910Z,22.07
2018-08-20T14:51:07.985Z,22.12
2018-08-20T14:54:11.883Z,22.13
2018-08-20T14:57:16.104Z,22.14
2018-08-20T15:00:20.214Z,22.15
2018-08-20T15:03:24.428Z,22.14
2018-08-20T15:06:28.321Z,22.15
2018-08-20T15:09:32.269Z,22.14
2018-08-20T15:12:36.333Z,22.15
2018-08-20T15:15:40.346Z,22.17
2018-08-20T15:18:44.332Z,22.20
2018-08-20T15:21:48.709Z,22.23
2018-08-20T15:24:52.594Z,22.24
2018-08-20T15:27:56.506Z,22.24
2018-08-20T15:31:00.384Z,22.27
2018-08-20T15:34:04.618Z,22.30
2018-08-20T15:37:08.500Z,22.25
2018-08-20T15:40:12.693Z,22.26
2018-08-20T15:43:16.569Z,22.22
2018-08-20T15:46:20.557Z,22.22
2018-08-20T15:49:24.594Z,22.22
2018-08-20T15:52:28.464Z,22.19
2018-08-20T15:55:32.466Z,22.15
2018-08-20T15:58:36.351Z,22.11
2018-08-20T16:01:40.228Z,22.07
2018-08-20T16:04:44.664Z,22.03
2018-08-20T16:07:48.569Z,22.01
2018-08-20T16:10:52.682Z,21.98
2018-08-20T16:13:56.771Z,21.92
2018-08-20T16:17:00.666Z,21.90
2018-08-20T16:20:04.766Z,21.86
2018-08-20T16:23:08.972Z,21.83
2018-08-20T16:26:13.223Z,21.78
2018-08-20T16:29:17.113Z,21.74
2018-08-20T16:32:21.470Z,21.72
2018-08-20T16:35:25.683Z,21.68
2018-08-20T16:38:29.559Z,21.66
2018-08-20T16:41:33.428Z,21.63
2018-08-20T16:44:37.649Z,21.60
2018-08-20T16:47:41.593Z,21.57
2018-08-20T16:50:45.666Z,21.57
2018-08-20T16:53:49.876Z,21.55
2018-08-20T16:56:54.000Z,21.52
2018-08-20T16:59:58.218Z,21.49
2018-08-20T17:03:02.705Z,21.42
2018-08-20T17:06:06.629Z,21.38
2018-08-20T17:09:11.224Z,21.33
2018-08-20T17:12:15.092Z,21.28
2018-08-20T17:15:21.177Z,21.24
2018-08-20T17:18:25.505Z,21.21
2018-08-20T17:21:29.380Z,21.14
2018-08-20T17:24:38.295Z,21.10
2018-08-20T17:27:44.850Z,21.05
2018-08-20T17:30:49.338Z,20.98
2018-08-20T17:33:53.236Z,20.92
2018-08-20T17:36:57.462Z,20.87
2018-08-20T17:40:03.845Z,20.83
2018-08-20T17:43:08.313Z,20.80
2018-08-20T17:46:12.550Z,20.73
2018-08-20T17:49:20.614Z,20.67
2018-08-20T17:52:29.793Z,20.64
2018-08-20T17:55:33.924Z,20.59
2018-08-20T17:58:38.138Z,20.52
2018-08-20T18:01:42.216Z,20.49
2018-08-20T18:04:46.624Z,20.43
2018-08-20T18:07:50.710Z,20.37
2018-08-20T18:10:54.940Z,20.31
2018-08-20T18:13:58.825Z,20.28
2018-08-20T18:17:02.750Z,20.23
2018-08-20T18:20:06.805Z,20.15
2018-08-20T18:23:10.694Z,20.09
2018-08-20T18:26:14.772Z,20.05
2018-08-20T18:29:18.652Z,20.02
2018-08-20T18:32:22.869Z,19.96
2018-08-20T18:35:32.797Z,19.88
2018-08-20T18:38:41.528Z,19.84
2018-08-20T18:42:05.416Z,19.79
2018-08-20T18:45:09.295Z,19.72
2018-08-20T18:48:13.381Z,19.66
2018-08-20T18:51:17.602Z,19.59
2018-08-20T18:54:21.489Z,19.55
2018-08-20T18:57:29.245Z,19.50
2018-08-20T19:00:33.136Z,19.44
2018-08-20T19:03:41.148Z,19.37
2018-08-20T19:06:45.012Z,19.31
2018-08-20T19:09:50.456Z,19.25
2018-08-20T19:12:54.424Z,19.18
2018-08-20T19:15:58.303Z,19.14
2018-08-20T19:19:02.185Z,19.08
2018-08-20T19:22:07.430Z,19.05
2018-08-20T19:25:11.317Z,18.99
2018-08-20T19:28:20.600Z,18.91
2018-08-20T19:31:24.502Z,18.82
2018-08-20T19:34:28.381Z,18.80
2018-08-20T19:37:32.260Z,18.80
2018-08-20T19:40:36.153Z,18.67
2018-08-20T19:43:45.501Z,18.63
2018-08-20T19:46:49.389Z,18.58
2018-08-20T19:49:53.599Z,18.49
2018-08-20T19:52:57.884Z,18.39
2018-08-20T19:56:02.291Z,18.36
2018-08-20T19:59:06.263Z,18.32
2018-08-20T20:02:11.421Z,18.24
2018-08-20T20:05:15.826Z,18.18
2018-08-20T20:08:19.697Z,18.17
2018-08-20T20:11:27.972Z,18.05
2018-08-20T20:14:37.529Z,18.05
2018-08-20T20:17:41.790Z,17.95
2018-08-20T20:20:46.151Z,17.91
2018-08-20T20:23:53.936Z,17.89
2018-08-20T20:26:59.353Z,17.79
2018-08-20T20:30:03.240Z,17.73
2018-08-20T20:33:07.449Z,17.66
2018-08-20T20:36:16.862Z,17.61
2018-08-20T20:39:21.150Z,17.55
2018-08-20T20:42:25.500Z,17.48
2018-08-20T20:45:29.674Z,17.45
2018-08-20T20:48:33.887Z,17.36
2018-08-20T20:51:38.110Z,17.28
2018-08-20T20:54:42.313Z,17.26
2018-08-20T20:57:46.715Z,17.23
2018-08-20T21:00:50.582Z,17.14
2018-08-20T21:03:54.562Z,17.14
2018-08-20T21:06:58.655Z,17.03
2018-08-20T21:10:02.748Z,17.04
2018-08-20T21:13:06.829Z,16.99
2018-08-20T21:16:11.921Z,16.90
2018-08-20T21:19:16.037Z,16.87
2018-08-20T21:22:19.920Z,16.82
2018-08-20T21:25:24.154Z,16.81
2018-08-20T21:28:50.436Z,16.80
2018-08-20T21:31:54.656Z,16.70
2018-08-20T21:34:58.541Z,16.66
2018-08-20T21:38:02.952Z,16.62
2018-08-20T21:41:07.273Z,16.58
2018-08-20T21:44:11.441Z,16.54
2018-08-20T21:47:22.998Z,16.55
2018-08-20T21:50:26.862Z,16.49
2018-08-20T21:53:36.205Z,16.44
2018-08-20T21:56:49.673Z,16.38
2018-08-20T22:00:11.195Z,16.32
2018-08-20T22:03:15.886Z,16.27
2018-08-20T22:06:19.787Z,16.23
2018-08-20T22:09:23.671Z,16.14
2018-08-20T22:12:28.148Z,16.14
2018-08-20T22:15:32.037Z,16.07
2018-08-20T22:18:38.169Z,16.04
2018-08-20T22:21:42.060Z,15.96
2018-08-20T22:24:49.668Z,15.92
2018-08-20T22:27:54.427Z,15.84
2018-08-20T22:30:58.546Z,15.86
2018-08-20T22:34:06.234Z,15.79
2018-08-20T22:37:10.125Z,15.73
2018-08-20T22:40:13.993Z,15.67
2018-08-20T22:43:17.878Z,15.65
2018-08-20T22:46:22.594Z,15.59
2018-08-20T22:49:26.478Z,15.55
2018-08-20T22:52:30.349Z,15.50
2018-08-20T22:55:34.565Z,15.45
2018-08-20T22:58:38.701Z,15.40
2018-08-20T23:01:43.176Z,15.38
2018-08-20T23:04:51.217Z,15.33
2018-08-20T23:07:55.097Z,15.27
2018-08-20T23:10:59.194Z,15.25
2018-08-20T23:14:03.613Z,15.18
2018-08-20T23:17:07.739Z,15.13
2018-08-20T23:20:18.875Z,15.12
2018-08-20T23:23:37.324Z,15.06
2018-08-20T23:26:41.530Z,15.03
2018-08-20T23:29:45.458Z,15.01
2018-08-20T23:32:49.421Z,14.96
2018-08-20T23:35:53.639Z,14.92
2018-08-20T23:38:57.517Z,14.87
2018-08-20T23:42:01.726Z,14.85
2018-08-20T23:45:05.889Z,14.81
2018-08-20T23:48:10.335Z,14.79
2018-08-20T23:51:14.209Z,14.72
2018-08-20T23:54:18.662Z,14.72
2018-08-20T23:57:22.941Z,14.71
